sensor_id;sensor_type;location;lat;lon;timestamp;P1;durP1;ratioP1;P2;durP2;ratioP2
20431;SDS011;10375;49.136;10.366;2022-08-21T00:01:50;6.40;;;3.10;;
20431;SDS011;10375;49.136;10.366;2022-08-21T00:04:17;3.88;;;3.20;;
20431;SDS011;10375;49.136;10.366;2022-08-21T00:06:48;5.53;;;3.50;;
20431;SDS011;10375;49.136;10.366;2022-08-21T00:09:16;5.22;;;3.15;;
20431;SDS011;10375;49.136;10.366;2022-08-21T00:11:45;3.88;;;3.17;;
20431;SDS011;10375;49.136;10.366;2022-08-21T00:14:12;6.07;;;3.25;;
20431;SDS011;10375;49.136;10.366;2022-08-21T00:16:40;6.72;;;3.28;;
20431;SDS011;10375;49.136;10.366;2022-08-21T00:19:07;9.90;;;3.10;;
20431;SDS011;10375;49.136;10.366;2022-08-21T00:21:35;3.78;;;3.03;;
20431;SDS011;10375;49.136;10.366;2022-08-21T00:24:03;7.47;;;3.22;;
20431;SDS011;10375;49.136;10.366;2022-08-21T00:26:30;6.05;;;3.25;;
20431;SDS011;10375;49.136;10.366;2022-08-21T00:28:57;5.93;;;3.50;;
20431;SDS011;10375;49.136;10.366;2022-08-21T00:31:25;6.72;;;3.10;;
20431;SDS011;10375;49.136;10.366;2022-08-21T00:33:52;6.05;;;3.38;;
20431;SDS011;10375;49.136;10.366;2022-08-21T00:36:26;4.72;;;3.10;;
20431;SDS011;10375;49.136;10.366;2022-08-21T00:38:53;4.95;;;3.30;;
20431;SDS011;10375;49.136;10.366;2022-08-21T00:41:20;5.82;;;3.30;;
20431;SDS011;10375;49.136;10.366;2022-08-21T00:44:04;4.93;;;3.17;;
20431;SDS011;10375;49.136;10.366;2022-08-21T00:46:33;3.65;;;2.92;;
20431;SDS011;10375;49.136;10.366;2022-08-21T00:49:00;7.32;;;3.10;;
20431;SDS011;10375;49.136;10.366;2022-08-21T00:51:37;5.63;;;2.95;;
20431;SDS011;10375;49.136;10.366;2022-08-21T00:54:08;4.35;;;3.20;;
20431;SDS011;10375;49.136;10.366;2022-08-21T00:56:44;6.25;;;3.15;;
20431;SDS011;10375;49.136;10.366;2022-08-21T00:59:16;5.90;;;3.90;;
20431;SDS011;10375;49.136;10.366;2022-08-21T01:01:45;4.03;;;3.00;;
20431;SDS011;10375;49.136;10.366;2022-08-21T01:04:13;4.03;;;2.67;;
20431;SDS011;10375;49.136;10.366;2022-08-21T01:06:42;5.68;;;2.97;;
20431;SDS011;10375;49.136;10.366;2022-08-21T01:09:10;7.28;;;3.33;;
20431;SDS011;10375;49.136;10.366;2022-08-21T01:11:37;5.15;;;2.78;;
20431;SDS011;10375;49.136;10.366;2022-08-21T01:14:05;4.13;;;3.25;;
20431;SDS011;10375;49.136;10.366;2022-08-21T01:16:32;7.60;;;3.40;;
20431;SDS011;10375;49.136;10.366;2022-08-21T01:18:59;6.85;;;3.15;;
20431;SDS011;10375;49.136;10.366;2022-08-21T01:21:26;3.30;;;3.00;;
20431;SDS011;10375;49.136;10.366;2022-08-21T01:23:55;4.75;;;3.53;;
20431;SDS011;10375;49.136;10.366;2022-08-21T01:26:24;6.22;;;3.08;;
20431;SDS011;10375;49.136;10.366;2022-08-21T01:29:01;6.30;;;3.35;;
20431;SDS011;10375;49.136;10.366;2022-08-21T01:31:32;7.32;;;3.63;;
20431;SDS011;10375;49.136;10.366;2022-08-21T01:33:59;3.50;;;3.20;;
20431;SDS011;10375;49.136;10.366;2022-08-21T01:36:26;4.97;;;3.55;;
20431;SDS011;10375;49.136;10.366;2022-08-21T01:38:54;6.38;;;3.38;;
20431;SDS011;10375;49.136;10.366;2022-08-21T01:41:22;7.28;;;3.90;;
20431;SDS011;10375;49.136;10.366;2022-08-21T01:43:49;4.18;;;3.72;;
20431;SDS011;10375;49.136;10.366;2022-08-21T01:46:16;3.67;;;3.10;;
20431;SDS011;10375;49.136;10.366;2022-08-21T01:48:44;7.38;;;3.20;;
20431;SDS011;10375;49.136;10.366;2022-08-21T01:51:11;3.72;;;3.28;;
20431;SDS011;10375;49.136;10.366;2022-08-21T01:53:38;5.80;;;3.17;;
20431;SDS011;10375;49.136;10.366;2022-08-21T01:56:06;5.97;;;3.63;;
20431;SDS011;10375;49.136;10.366;2022-08-21T01:58:37;4.40;;;3.40;;
20431;SDS011;10375;49.136;10.366;2022-08-21T02:01:09;4.55;;;3.20;;
20431;SDS011;10375;49.136;10.366;2022-08-21T02:03:37;10.95;;;3.67;;
20431;SDS011;10375;49.136;10.366;2022-08-21T02:06:05;7.47;;;3.47;;
20431;SDS011;10375;49.136;10.366;2022-08-21T02:08:33;4.85;;;3.13;;
20431;SDS011;10375;49.136;10.366;2022-08-21T02:11:00;8.23;;;3.50;;
20431;SDS011;10375;49.136;10.366;2022-08-21T02:13:28;4.70;;;3.50;;
20431;SDS011;10375;49.136;10.366;2022-08-21T02:15:55;6.45;;;3.40;;
20431;SDS011;10375;49.136;10.366;2022-08-21T02:18:22;5.65;;;3.33;;
20431;SDS011;10375;49.136;10.366;2022-08-21T02:20:49;5.40;;;3.17;;
20431;SDS011;10375;49.136;10.366;2022-08-21T02:23:22;5.10;;;4.28;;
20431;SDS011;10375;49.136;10.366;2022-08-21T02:26:02;8.02;;;3.42;;
20431;SDS011;10375;49.136;10.366;2022-08-21T02:28:33;16.42;;;4.32;;
20431;SDS011;10375;49.136;10.366;2022-08-21T02:31:01;10.57;;;3.53;;
20431;SDS011;10375;49.136;10.366;2022-08-21T02:33:29;5.90;;;3.55;;
20431;SDS011;10375;49.136;10.366;2022-08-21T02:35:56;4.07;;;3.15;;
20431;SDS011;10375;49.136;10.366;2022-08-21T02:38:26;7.80;;;3.45;;
20431;SDS011;10375;49.136;10.366;2022-08-21T02:40:56;6.28;;;3.42;;
20431;SDS011;10375;49.136;10.366;2022-08-21T02:43:24;8.75;;;3.00;;
20431;SDS011;10375;49.136;10.366;2022-08-21T02:45:52;7.95;;;3.63;;
20431;SDS011;10375;49.136;10.366;2022-08-21T02:48:23;7.15;;;3.75;;
20431;SDS011;10375;49.136;10.366;2022-08-21T02:50:55;9.82;;;3.10;;
20431;SDS011;10375;49.136;10.366;2022-08-21T02:53:28;4.65;;;3.05;;
20431;SDS011;10375;49.136;10.366;2022-08-21T02:55:56;6.80;;;2.97;;
20431;SDS011;10375;49.136;10.366;2022-08-21T02:58:29;4.05;;;2.80;;
20431;SDS011;10375;49.136;10.366;2022-08-21T03:00:59;4.18;;;3.10;;
20431;SDS011;10375;49.136;10.366;2022-08-21T03:03:27;5.57;;;2.72;;
20431;SDS011;10375;49.136;10.366;2022-08-21T03:05:55;5.03;;;3.17;;
20431;SDS011;10375;49.136;10.366;2022-08-21T03:08:23;10.40;;;3.20;;
20431;SDS011;10375;49.136;10.366;2022-08-21T03:10:53;3.60;;;2.88;;
20431;SDS011;10375;49.136;10.366;2022-08-21T03:13:20;8.85;;;3.40;;
20431;SDS011;10375;49.136;10.366;2022-08-21T03:15:48;6.22;;;3.00;;
20431;SDS011;10375;49.136;10.366;2022-08-21T03:18:16;7.00;;;3.50;;
20431;SDS011;10375;49.136;10.366;2022-08-21T03:20:44;5.45;;;3.17;;
20431;SDS011;10375;49.136;10.366;2022-08-21T03:23:15;5.03;;;3.00;;
20431;SDS011;10375;49.136;10.366;2022-08-21T03:25:44;4.20;;;3.33;;
20431;SDS011;10375;49.136;10.366;2022-08-21T03:28:14;4.82;;;3.40;;
20431;SDS011;10375;49.136;10.366;2022-08-21T03:30:44;6.32;;;4.35;;
20431;SDS011;10375;49.136;10.366;2022-08-21T03:33:13;5.20;;;4.18;;
20431;SDS011;10375;49.136;10.366;2022-08-21T03:35:44;4.68;;;3.92;;
20431;SDS011;10375;49.136;10.366;2022-08-21T03:38:13;6.47;;;3.42;;
20431;SDS011;10375;49.136;10.366;2022-08-21T03:40:41;5.72;;;3.20;;
20431;SDS011;10375;49.136;10.366;2022-08-21T03:43:09;5.82;;;3.92;;
20431;SDS011;10375;49.136;10.366;2022-08-21T03:45:37;6.65;;;4.10;;
20431;SDS011;10375;49.136;10.366;2022-08-21T03:48:05;4.32;;;3.63;;
20431;SDS011;10375;49.136;10.366;2022-08-21T03:50:35;6.22;;;4.10;;
20431;SDS011;10375;49.136;10.366;2022-08-21T03:53:07;4.18;;;3.30;;
20431;SDS011;10375;49.136;10.366;2022-08-21T03:55:43;6.10;;;3.95;;
20431;SDS011;10375;49.136;10.366;2022-08-21T03:58:14;6.78;;;4.10;;
20431;SDS011;10375;49.136;10.366;2022-08-21T04:00:46;8.75;;;4.97;;
20431;SDS011;10375;49.136;10.366;2022-08-21T04:03:15;6.53;;;3.92;;
20431;SDS011;10375;49.136;10.366;2022-08-21T04:05:42;7.53;;;4.40;;
20431;SDS011;10375;49.136;10.366;2022-08-21T04:08:12;4.80;;;4.22;;
20431;SDS011;10375;49.136;10.366;2022-08-21T04:10:41;8.70;;;4.70;;
20431;SDS011;10375;49.136;10.366;2022-08-21T04:13:10;6.15;;;4.65;;
20431;SDS011;10375;49.136;10.366;2022-08-21T04:15:37;7.35;;;4.85;;
20431;SDS011;10375;49.136;10.366;2022-08-21T04:18:04;9.80;;;4.00;;
20431;SDS011;10375;49.136;10.366;2022-08-21T04:20:32;9.82;;;4.47;;
20431;SDS011;10375;49.136;10.366;2022-08-21T04:22:59;12.80;;;4.25;;
20431;SDS011;10375;49.136;10.366;2022-08-21T04:25:26;9.68;;;4.43;;
20431;SDS011;10375;49.136;10.366;2022-08-21T04:27:54;7.10;;;4.05;;
20431;SDS011;10375;49.136;10.366;2022-08-21T04:30:22;14.18;;;4.47;;
20431;SDS011;10375;49.136;10.366;2022-08-21T04:32:54;7.28;;;4.18;;
20431;SDS011;10375;49.136;10.366;2022-08-21T04:35:24;8.63;;;4.78;;
20431;SDS011;10375;49.136;10.366;2022-08-21T04:37:53;5.63;;;4.68;;
20431;SDS011;10375;49.136;10.366;2022-08-21T04:40:20;30.65;;;7.32;;
20431;SDS011;10375;49.136;10.366;2022-08-21T04:42:49;16.25;;;5.47;;
20431;SDS011;10375;49.136;10.366;2022-08-21T04:45:20;11.18;;;5.40;;
20431;SDS011;10375;49.136;10.366;2022-08-21T04:47:51;10.25;;;5.07;;
20431;SDS011;10375;49.136;10.366;2022-08-21T04:50:21;6.50;;;5.10;;
20431;SDS011;10375;49.136;10.366;2022-08-21T04:52:52;9.80;;;5.40;;
20431;SDS011;10375;49.136;10.366;2022-08-21T04:55:20;4.88;;;4.40;;
20431;SDS011;10375;49.136;10.366;2022-08-21T04:57:50;13.15;;;5.80;;
20431;SDS011;10375;49.136;10.366;2022-08-21T05:00:20;8.27;;;5.28;;
20431;SDS011;10375;49.136;10.366;2022-08-21T05:02:48;13.40;;;5.18;;
20431;SDS011;10375;49.136;10.366;2022-08-21T05:05:16;12.63;;;4.90;;
20431;SDS011;10375;49.136;10.366;2022-08-21T05:07:43;9.90;;;4.45;;
20431;SDS011;10375;49.136;10.366;2022-08-21T05:10:12;8.55;;;4.15;;
20431;SDS011;10375;49.136;10.366;2022-08-21T05:12:41;8.25;;;3.90;;
20431;SDS011;10375;49.136;10.366;2022-08-21T05:15:09;4.40;;;4.00;;
20431;SDS011;10375;49.136;10.366;2022-08-21T05:17:41;27.67;;;5.45;;
20431;SDS011;10375;49.136;10.366;2022-08-21T05:20:09;7.30;;;4.35;;
20431;SDS011;10375;49.136;10.366;2022-08-21T05:22:37;9.48;;;4.57;;
20431;SDS011;10375;49.136;10.366;2022-08-21T05:25:05;21.80;;;6.30;;
20431;SDS011;10375;49.136;10.366;2022-08-21T05:27:36;13.40;;;4.90;;
20431;SDS011;10375;49.136;10.366;2022-08-21T05:30:08;16.15;;;5.95;;
20431;SDS011;10375;49.136;10.366;2022-08-21T05:32:36;10.93;;;5.03;;
20431;SDS011;10375;49.136;10.366;2022-08-21T05:35:04;12.98;;;5.47;;
20431;SDS011;10375;49.136;10.366;2022-08-21T05:37:33;8.50;;;5.65;;
20431;SDS011;10375;49.136;10.366;2022-08-21T05:40:00;10.02;;;5.40;;
20431;SDS011;10375;49.136;10.366;2022-08-21T05:42:48;5.72;;;5.13;;
20431;SDS011;10375;49.136;10.366;2022-08-21T05:45:22;4.95;;;4.45;;
20431;SDS011;10375;49.136;10.366;2022-08-21T05:48:22;5.72;;;4.07;;
20431;SDS011;10375;49.136;10.366;2022-08-21T05:50:50;4.50;;;3.63;;
20431;SDS011;10375;49.136;10.366;2022-08-21T05:53:19;15.93;;;4.85;;
20431;SDS011;10375;49.136;10.366;2022-08-21T05:55:47;8.40;;;4.63;;
20431;SDS011;10375;49.136;10.366;2022-08-21T05:58:18;5.82;;;3.03;;
20431;SDS011;10375;49.136;10.366;2022-08-21T06:00:47;5.30;;;3.15;;
20431;SDS011;10375;49.136;10.366;2022-08-21T06:03:20;11.50;;;3.80;;
20431;SDS011;10375;49.136;10.366;2022-08-21T06:05:51;12.60;;;3.47;;
20431;SDS011;10375;49.136;10.366;2022-08-21T06:08:20;4.00;;;3.00;;
20431;SDS011;10375;49.136;10.366;2022-08-21T06:10:49;6.03;;;3.30;;
20431;SDS011;10375;49.136;10.366;2022-08-21T06:13:17;4.03;;;2.85;;
20431;SDS011;10375;49.136;10.366;2022-08-21T06:15:45;6.10;;;3.47;;
20431;SDS011;10375;49.136;10.366;2022-08-21T06:18:12;5.15;;;3.38;;
20431;SDS011;10375;49.136;10.366;2022-08-21T06:20:39;13.52;;;3.75;;
20431;SDS011;10375;49.136;10.366;2022-08-21T06:23:07;6.40;;;4.07;;
20431;SDS011;10375;49.136;10.366;2022-08-21T06:25:35;4.85;;;3.28;;
20431;SDS011;10375;49.136;10.366;2022-08-21T06:28:06;16.30;;;3.97;;
20431;SDS011;10375;49.136;10.366;2022-08-21T06:30:37;14.38;;;4.70;;
20431;SDS011;10375;49.136;10.366;2022-08-21T06:33:04;8.07;;;4.00;;
20431;SDS011;10375;49.136;10.366;2022-08-21T06:35:33;7.55;;;3.53;;
20431;SDS011;10375;49.136;10.366;2022-08-21T06:38:01;7.28;;;3.83;;
20431;SDS011;10375;49.136;10.366;2022-08-21T06:40:28;4.80;;;3.58;;
20431;SDS011;10375;49.136;10.366;2022-08-21T06:43:10;6.32;;;3.40;;
20431;SDS011;10375;49.136;10.366;2022-08-21T06:45:40;7.40;;;3.78;;
20431;SDS011;10375;49.136;10.366;2022-08-21T06:48:08;16.67;;;4.53;;
20431;SDS011;10375;49.136;10.366;2022-08-21T06:50:38;17.02;;;4.90;;
20431;SDS011;10375;49.136;10.366;2022-08-21T06:53:08;10.35;;;4.07;;
20431;SDS011;10375;49.136;10.366;2022-08-21T06:55:38;14.23;;;5.25;;
20431;SDS011;10375;49.136;10.366;2022-08-21T06:58:06;10.85;;;5.05;;
20431;SDS011;10375;49.136;10.366;2022-08-21T07:00:33;9.27;;;4.93;;
20431;SDS011;10375;49.136;10.366;2022-08-21T07:03:01;5.97;;;4.50;;
20431;SDS011;10375;49.136;10.366;2022-08-21T07:05:29;6.78;;;4.63;;
20431;SDS011;10375;49.136;10.366;2022-08-21T07:07:57;11.25;;;5.53;;
20431;SDS011;10375;49.136;10.366;2022-08-21T07:10:26;18.63;;;5.88;;
20431;SDS011;10375;49.136;10.366;2022-08-21T07:12:53;24.92;;;7.18;;
20431;SDS011;10375;49.136;10.366;2022-08-21T07:15:26;11.35;;;4.50;;
20431;SDS011;10375;49.136;10.366;2022-08-21T07:17:56;13.70;;;5.35;;
20431;SDS011;10375;49.136;10.366;2022-08-21T07:20:24;6.90;;;4.80;;
20431;SDS011;10375;49.136;10.366;2022-08-21T07:22:51;8.25;;;4.82;;
20431;SDS011;10375;49.136;10.366;2022-08-21T07:25:19;8.88;;;5.00;;
20431;SDS011;10375;49.136;10.366;2022-08-21T07:27:46;12.05;;;5.65;;
20431;SDS011;10375;49.136;10.366;2022-08-21T07:30:13;7.60;;;5.03;;
20431;SDS011;10375;49.136;10.366;2022-08-21T07:32:40;9.27;;;5.22;;
20431;SDS011;10375;49.136;10.366;2022-08-21T07:35:07;9.82;;;5.70;;
20431;SDS011;10375;49.136;10.366;2022-08-21T07:37:34;18.77;;;5.10;;
20431;SDS011;10375;49.136;10.366;2022-08-21T07:40:02;9.00;;;5.30;;
20431;SDS011;10375;49.136;10.366;2022-08-21T07:42:30;18.83;;;5.07;;
20431;SDS011;10375;49.136;10.366;2022-08-21T07:44:57;7.03;;;4.95;;
20431;SDS011;10375;49.136;10.366;2022-08-21T07:47:24;6.40;;;4.90;;
20431;SDS011;10375;49.136;10.366;2022-08-21T07:50:08;7.25;;;5.20;;
20431;SDS011;10375;49.136;10.366;2022-08-21T07:52:38;9.02;;;5.75;;
20431;SDS011;10375;49.136;10.366;2022-08-21T07:55:06;25.05;;;6.07;;
20431;SDS011;10375;49.136;10.366;2022-08-21T07:57:36;10.38;;;5.32;;
20431;SDS011;10375;49.136;10.366;2022-08-21T08:00:04;6.10;;;4.35;;
20431;SDS011;10375;49.136;10.366;2022-08-21T08:02:34;14.35;;;5.18;;
20431;SDS011;10375;49.136;10.366;2022-08-21T08:05:04;6.40;;;4.28;;
20431;SDS011;10375;49.136;10.366;2022-08-21T08:07:34;6.10;;;5.00;;
20431;SDS011;10375;49.136;10.366;2022-08-21T08:10:02;26.92;;;5.35;;
20431;SDS011;10375;49.136;10.366;2022-08-21T08:12:30;7.68;;;4.97;;
20431;SDS011;10375;49.136;10.366;2022-08-21T08:14:58;34.78;;;5.97;;
20431;SDS011;10375;49.136;10.366;2022-08-21T08:17:27;37.70;;;6.47;;
20431;SDS011;10375;49.136;10.366;2022-08-21T08:19:54;7.97;;;5.45;;
20431;SDS011;10375;49.136;10.366;2022-08-21T08:22:22;7.72;;;4.78;;
20431;SDS011;10375;49.136;10.366;2022-08-21T08:24:50;10.85;;;5.78;;
20431;SDS011;10375;49.136;10.366;2022-08-21T08:27:19;7.32;;;5.60;;
20431;SDS011;10375;49.136;10.366;2022-08-21T08:29:46;6.95;;;5.38;;
20431;SDS011;10375;49.136;10.366;2022-08-21T08:32:13;5.88;;;5.05;;
20431;SDS011;10375;49.136;10.366;2022-08-21T08:34:42;7.82;;;5.40;;
20431;SDS011;10375;49.136;10.366;2022-08-21T08:37:09;11.43;;;4.95;;
20431;SDS011;10375;49.136;10.366;2022-08-21T08:39:37;7.55;;;5.57;;
20431;SDS011;10375;49.136;10.366;2022-08-21T08:42:07;8.25;;;5.57;;
20431;SDS011;10375;49.136;10.366;2022-08-21T08:45:10;7.72;;;5.18;;
20431;SDS011;10375;49.136;10.366;2022-08-21T08:47:42;40.78;;;6.45;;
20431;SDS011;10375;49.136;10.366;2022-08-21T08:50:26;12.30;;;4.95;;
20431;SDS011;10375;49.136;10.366;2022-08-21T08:53:05;7.47;;;5.40;;
20431;SDS011;10375;49.136;10.366;2022-08-21T08:55:35;9.75;;;4.88;;
20431;SDS011;10375;49.136;10.366;2022-08-21T08:58:05;7.82;;;4.50;;
20431;SDS011;10375;49.136;10.366;2022-08-21T09:00:32;20.23;;;5.63;;
20431;SDS011;10375;49.136;10.366;2022-08-21T09:03:01;21.60;;;5.95;;
20431;SDS011;10375;49.136;10.366;2022-08-21T09:05:31;7.57;;;4.90;;
20431;SDS011;10375;49.136;10.366;2022-08-21T09:27:08;5.60;;;4.20;;
20431;SDS011;10375;49.136;10.366;2022-08-21T09:29:41;6.95;;;5.45;;
20431;SDS011;10375;49.136;10.366;2022-08-21T09:32:32;15.98;;;4.70;;
20431;SDS011;10375;49.136;10.366;2022-08-21T09:35:10;8.57;;;4.20;;
20431;SDS011;10375;49.136;10.366;2022-08-21T09:37:51;5.68;;;3.15;;
20431;SDS011;10375;49.136;10.366;2022-08-21T09:40:35;9.80;;;4.03;;
20431;SDS011;10375;49.136;10.366;2022-08-21T09:43:06;5.88;;;3.28;;
20431;SDS011;10375;49.136;10.366;2022-08-21T09:45:48;4.03;;;3.38;;
20431;SDS011;10375;49.136;10.366;2022-08-21T09:48:27;5.20;;;3.00;;
20431;SDS011;10375;49.136;10.366;2022-08-21T09:51:06;6.25;;;3.72;;
20431;SDS011;10375;49.136;10.366;2022-08-21T09:53:37;12.13;;;4.18;;
20431;SDS011;10375;49.136;10.366;2022-08-21T09:59:14;9.60;;;5.38;;
20431;SDS011;10375;49.136;10.366;2022-08-21T10:01:51;5.95;;;4.43;;
20431;SDS011;10375;49.136;10.366;2022-08-21T10:04:21;5.38;;;3.72;;
20431;SDS011;10375;49.136;10.366;2022-08-21T10:06:49;5.47;;;3.25;;
20431;SDS011;10375;49.136;10.366;2022-08-21T10:09:19;6.75;;;2.67;;
20431;SDS011;10375;49.136;10.366;2022-08-21T10:11:49;4.88;;;3.03;;
20431;SDS011;10375;49.136;10.366;2022-08-21T10:20:25;3.53;;;2.30;;
20431;SDS011;10375;49.136;10.366;2022-08-21T10:23:33;2.97;;;2.22;;
20431;SDS011;10375;49.136;10.366;2022-08-21T10:26:09;15.45;;;3.08;;
20431;SDS011;10375;49.136;10.366;2022-08-21T10:31:41;8.73;;;3.20;;
20431;SDS011;10375;49.136;10.366;2022-08-21T10:37:13;4.90;;;3.03;;
20431;SDS011;10375;49.136;10.366;2022-08-21T10:48:20;8.77;;;3.15;;
20431;SDS011;10375;49.136;10.366;2022-08-21T10:50:50;4.38;;;2.65;;
20431;SDS011;10375;49.136;10.366;2022-08-21T10:53:40;3.05;;;2.33;;
20431;SDS011;10375;49.136;10.366;2022-08-21T10:56:29;3.65;;;2.20;;
20431;SDS011;10375;49.136;10.366;2022-08-21T11:01:28;4.82;;;2.00;;
20431;SDS011;10375;49.136;10.366;2022-08-21T11:04:25;6.78;;;2.33;;
20431;SDS011;10375;49.136;10.366;2022-08-21T11:07:32;3.58;;;2.22;;
20431;SDS011;10375;49.136;10.366;2022-08-21T11:10:47;3.83;;;2.28;;
20431;SDS011;10375;49.136;10.366;2022-08-21T11:12:58;3.75;;;2.03;;
20431;SDS011;10375;49.136;10.366;2022-08-21T11:15:40;3.50;;;2.10;;
20431;SDS011;10375;49.136;10.366;2022-08-21T11:23:47;6.53;;;2.75;;
20431;SDS011;10375;49.136;10.366;2022-08-21T11:26:37;4.00;;;2.05;;
20431;SDS011;10375;49.136;10.366;2022-08-21T11:29:20;4.28;;;2.28;;
20431;SDS011;10375;49.136;10.366;2022-08-21T11:34:31;5.38;;;2.55;;
20431;SDS011;10375;49.136;10.366;2022-08-21T11:39:58;7.38;;;2.90;;
20431;SDS011;10375;49.136;10.366;2022-08-21T11:42:33;3.53;;;2.20;;
20431;SDS011;10375;49.136;10.366;2022-08-21T11:51:13;3.10;;;2.03;;
20431;SDS011;10375;49.136;10.366;2022-08-21T11:56:42;3.70;;;2.28;;
20431;SDS011;10375;49.136;10.366;2022-08-21T11:59:19;2.70;;;2.42;;
20431;SDS011;10375;49.136;10.366;2022-08-21T12:01:50;2.58;;;2.30;;
20431;SDS011;10375;49.136;10.366;2022-08-21T12:04:25;3.60;;;2.45;;
20431;SDS011;10375;49.136;10.366;2022-08-21T12:06:55;5.18;;;2.40;;
20431;SDS011;10375;49.136;10.366;2022-08-21T12:11:59;4.30;;;2.13;;
20431;SDS011;10375;49.136;10.366;2022-08-21T12:14:47;6.38;;;2.70;;
20431;SDS011;10375;49.136;10.366;2022-08-21T12:17:23;2.90;;;2.15;;
20431;SDS011;10375;49.136;10.366;2022-08-21T12:23:33;2.67;;;2.03;;
20431;SDS011;10375;49.136;10.366;2022-08-21T12:25:43;3.80;;;2.60;;
20431;SDS011;10375;49.136;10.366;2022-08-21T12:28:14;2.75;;;1.90;;
20431;SDS011;10375;49.136;10.366;2022-08-21T12:30:48;3.85;;;2.40;;
20431;SDS011;10375;49.136;10.366;2022-08-21T12:33:24;2.88;;;2.17;;
20431;SDS011;10375;49.136;10.366;2022-08-21T12:41:15;3.75;;;2.15;;
20431;SDS011;10375;49.136;10.366;2022-08-21T12:43:47;7.32;;;2.13;;
20431;SDS011;10375;49.136;10.366;2022-08-21T12:46:21;3.45;;;1.85;;
20431;SDS011;10375;49.136;10.366;2022-08-21T12:49:18;2.95;;;2.20;;
20431;SDS011;10375;49.136;10.366;2022-08-21T12:54:46;4.07;;;2.13;;
20431;SDS011;10375;49.136;10.366;2022-08-21T12:57:31;3.10;;;2.00;;
20431;SDS011;10375;49.136;10.366;2022-08-21T13:00:05;3.47;;;2.10;;
20431;SDS011;10375;49.136;10.366;2022-08-21T13:02:46;2.72;;;2.20;;
20431;SDS011;10375;49.136;10.366;2022-08-21T13:05:21;4.40;;;1.98;;
20431;SDS011;10375;49.136;10.366;2022-08-21T13:07:57;3.15;;;1.83;;
20431;SDS011;10375;49.136;10.366;2022-08-21T13:10:27;3.35;;;2.08;;
20431;SDS011;10375;49.136;10.366;2022-08-21T13:12:59;2.42;;;1.50;;
20431;SDS011;10375;49.136;10.366;2022-08-21T13:15:38;2.40;;;1.92;;
20431;SDS011;10375;49.136;10.366;2022-08-21T13:18:23;2.28;;;1.60;;
20431;SDS011;10375;49.136;10.366;2022-08-21T13:20:51;4.43;;;1.70;;
20431;SDS011;10375;49.136;10.366;2022-08-21T13:23:29;4.55;;;1.75;;
20431;SDS011;10375;49.136;10.366;2022-08-21T13:25:59;2.13;;;1.63;;
20431;SDS011;10375;49.136;10.366;2022-08-21T13:28:32;4.63;;;1.98;;
20431;SDS011;10375;49.136;10.366;2022-08-21T13:31:00;3.03;;;1.85;;
20431;SDS011;10375;49.136;10.366;2022-08-21T13:33:29;4.53;;;1.58;;
20431;SDS011;10375;49.136;10.366;2022-08-21T13:36:04;5.13;;;1.73;;
20431;SDS011;10375;49.136;10.366;2022-08-21T13:38:44;3.10;;;1.88;;
20431;SDS011;10375;49.136;10.366;2022-08-21T13:43:58;5.05;;;2.08;;
20431;SDS011;10375;49.136;10.366;2022-08-21T13:46:31;3.90;;;1.58;;
20431;SDS011;10375;49.136;10.366;2022-08-21T13:49:02;5.50;;;1.73;;
20431;SDS011;10375;49.136;10.366;2022-08-21T13:51:31;3.38;;;1.95;;
20431;SDS011;10375;49.136;10.366;2022-08-21T13:54:00;3.22;;;1.80;;
20431;SDS011;10375;49.136;10.366;2022-08-21T13:58:55;3.55;;;1.48;;
20431;SDS011;10375;49.136;10.366;2022-08-21T14:03:58;4.25;;;1.88;;
20431;SDS011;10375;49.136;10.366;2022-08-21T14:06:53;7.63;;;1.75;;
20431;SDS011;10375;49.136;10.366;2022-08-21T14:09:25;2.70;;;1.73;;
20431;SDS011;10375;49.136;10.366;2022-08-21T14:11:59;3.45;;;1.63;;
20431;SDS011;10375;49.136;10.366;2022-08-21T14:14:30;19.20;;;3.42;;
20431;SDS011;10375;49.136;10.366;2022-08-21T14:17:03;3.78;;;1.83;;
20431;SDS011;10375;49.136;10.366;2022-08-21T14:19:50;2.55;;;1.70;;
20431;SDS011;10375;49.136;10.366;2022-08-21T14:28:02;10.43;;;1.98;;
20431;SDS011;10375;49.136;10.366;2022-08-21T14:30:45;5.35;;;2.15;;
20431;SDS011;10375;49.136;10.366;2022-08-21T14:33:26;2.80;;;1.60;;
20431;SDS011;10375;49.136;10.366;2022-08-21T14:35:56;2.90;;;1.85;;
20431;SDS011;10375;49.136;10.366;2022-08-21T14:38:25;2.22;;;1.52;;
20431;SDS011;10375;49.136;10.366;2022-08-21T14:40:55;2.83;;;1.67;;
20431;SDS011;10375;49.136;10.366;2022-08-21T14:43:26;3.03;;;1.85;;
20431;SDS011;10375;49.136;10.366;2022-08-21T14:45:54;3.38;;;1.90;;
20431;SDS011;10375;49.136;10.366;2022-08-21T14:48:22;3.33;;;1.63;;
20431;SDS011;10375;49.136;10.366;2022-08-21T14:50:49;3.67;;;2.00;;
20431;SDS011;10375;49.136;10.366;2022-08-21T14:53:22;4.72;;;1.50;;
20431;SDS011;10375;49.136;10.366;2022-08-21T14:55:49;6.70;;;1.83;;
20431;SDS011;10375;49.136;10.366;2022-08-21T14:58:32;3.13;;;1.55;;
20431;SDS011;10375;49.136;10.366;2022-08-21T15:01:01;4.63;;;1.60;;
20431;SDS011;10375;49.136;10.366;2022-08-21T15:03:31;2.42;;;1.88;;
20431;SDS011;10375;49.136;10.366;2022-08-21T15:05:59;8.48;;;1.85;;
20431;SDS011;10375;49.136;10.366;2022-08-21T15:08:30;6.45;;;1.65;;
20431;SDS011;10375;49.136;10.366;2022-08-21T15:10:59;3.00;;;1.65;;
20431;SDS011;10375;49.136;10.366;2022-08-21T15:13:49;5.70;;;1.83;;
20431;SDS011;10375;49.136;10.366;2022-08-21T15:16:21;2.38;;;1.80;;
20431;SDS011;10375;49.136;10.366;2022-08-21T15:18:49;3.20;;;1.88;;
20431;SDS011;10375;49.136;10.366;2022-08-21T15:21:17;5.28;;;2.83;;
20431;SDS011;10375;49.136;10.366;2022-08-21T15:23:44;5.88;;;1.90;;
20431;SDS011;10375;49.136;10.366;2022-08-21T15:26:11;3.85;;;1.70;;
20431;SDS011;10375;49.136;10.366;2022-08-21T15:28:42;3.28;;;1.95;;
20431;SDS011;10375;49.136;10.366;2022-08-21T15:31:09;3.03;;;1.52;;
20431;SDS011;10375;49.136;10.366;2022-08-21T15:33:37;5.13;;;1.90;;
20431;SDS011;10375;49.136;10.366;2022-08-21T15:36:04;4.47;;;1.83;;
20431;SDS011;10375;49.136;10.366;2022-08-21T15:38:31;3.38;;;1.75;;
20431;SDS011;10375;49.136;10.366;2022-08-21T15:40:59;22.30;;;2.75;;
20431;SDS011;10375;49.136;10.366;2022-08-21T15:43:30;7.65;;;2.00;;
20431;SDS011;10375;49.136;10.366;2022-08-21T15:46:12;2.63;;;2.08;;
20431;SDS011;10375;49.136;10.366;2022-08-21T15:48:41;2.92;;;2.17;;
20431;SDS011;10375;49.136;10.366;2022-08-21T15:51:09;3.35;;;2.08;;
20431;SDS011;10375;49.136;10.366;2022-08-21T15:53:37;4.43;;;2.40;;
20431;SDS011;10375;49.136;10.366;2022-08-21T15:56:08;3.17;;;1.80;;
20431;SDS011;10375;49.136;10.366;2022-08-21T15:58:42;4.38;;;1.85;;
20431;SDS011;10375;49.136;10.366;2022-08-21T16:01:10;3.22;;;2.40;;
20431;SDS011;10375;49.136;10.366;2022-08-21T16:03:37;3.38;;;1.80;;
20431;SDS011;10375;49.136;10.366;2022-08-21T16:06:05;3.22;;;1.88;;
20431;SDS011;10375;49.136;10.366;2022-08-21T16:08:33;5.32;;;2.28;;
20431;SDS011;10375;49.136;10.366;2022-08-21T16:11:00;3.33;;;2.38;;
20431;SDS011;10375;49.136;10.366;2022-08-21T16:13:29;2.90;;;1.80;;
20431;SDS011;10375;49.136;10.366;2022-08-21T16:16:04;8.10;;;1.88;;
20431;SDS011;10375;49.136;10.366;2022-08-21T16:18:33;3.17;;;1.88;;
20431;SDS011;10375;49.136;10.366;2022-08-21T16:21:01;3.88;;;2.20;;
20431;SDS011;10375;49.136;10.366;2022-08-21T16:23:28;5.47;;;1.92;;
20431;SDS011;10375;49.136;10.366;2022-08-21T16:25:57;5.53;;;1.90;;
20431;SDS011;10375;49.136;10.366;2022-08-21T16:28:25;3.42;;;1.73;;
20431;SDS011;10375;49.136;10.366;2022-08-21T16:30:53;3.10;;;1.90;;